Terminal Aerodrome Forecast
Issued by NWS

Home | Current Version | Previous Version | Graphics & Text | Print | Product List | Glossary On
Versions: 1 2 3 4 5 6 7 8 9 10 11 12 13 14 15
717
FTUS41 KCLE 252330
TAFFDY
TAF
KFDY 252330Z 2600/2624 07006KT P6SM FEW200
      TEMPO 2611/2613 5SM BR
     FM261300 17004KT P6SM FEW250=

USA.gov is the U.S. government's official web portal to all federal, state and local government web resources and services.